sensor_id;sensor_type;location;lat;lon;timestamp;pressure;altitude;pressure_sealevel;temperature;humidity
12757;BME280;31601;48.042;12.240;2023-07-16T00:02:19;95772.88;;;24.30;57.19
12757;BME280;31601;48.042;12.240;2023-07-16T00:04:45;95791.69;;;24.25;56.29
12757;BME280;31601;48.042;12.240;2023-07-16T00:07:12;95811.28;;;24.20;56.52
12757;BME280;31601;48.042;12.240;2023-07-16T00:09:38;95819.53;;;23.94;56.68
12757;BME280;31601;48.042;12.240;2023-07-16T00:12:06;95830.44;;;24.08;56.42
12757;BME280;31601;48.042;12.240;2023-07-16T00:14:33;95826.50;;;24.30;55.66
12757;BME280;31601;48.042;12.240;2023-07-16T00:17:00;95836.50;;;24.19;56.14
12757;BME280;31601;48.042;12.240;2023-07-16T00:19:26;95829.75;;;24.22;55.75
12757;BME280;31601;48.042;12.240;2023-07-16T00:21:53;95832.38;;;24.32;55.44
12757;BME280;31601;48.042;12.240;2023-07-16T00:24:19;95849.63;;;24.21;55.40
12757;BME280;31601;48.042;12.240;2023-07-16T00:26:46;95847.25;;;24.48;55.07
12757;BME280;31601;48.042;12.240;2023-07-16T00:29:13;95844.31;;;24.45;54.67
12757;BME280;31601;48.042;12.240;2023-07-16T00:31:40;95861.22;;;24.45;54.25
12757;BME280;31601;48.042;12.240;2023-07-16T00:34:06;95852.44;;;24.69;53.69
12757;BME280;31601;48.042;12.240;2023-07-16T00:36:33;95863.09;;;24.10;55.50
12757;BME280;31601;48.042;12.240;2023-07-16T00:38:59;95876.72;;;24.14;55.49
12757;BME280;31601;48.042;12.240;2023-07-16T00:41:25;95874.25;;;24.57;54.66
12757;BME280;31601;48.042;12.240;2023-07-16T00:43:52;95888.50;;;24.58;54.16
12757;BME280;31601;48.042;12.240;2023-07-16T00:46:20;95894.94;;;24.52;54.37
12757;BME280;31601;48.042;12.240;2023-07-16T00:48:47;95910.25;;;24.11;55.65
12757;BME280;31601;48.042;12.240;2023-07-16T00:51:14;95912.38;;;24.15;55.80
12757;BME280;31601;48.042;12.240;2023-07-16T00:53:41;95908.00;;;24.29;55.36
12757;BME280;31601;48.042;12.240;2023-07-16T00:56:08;95910.34;;;24.36;54.87
12757;BME280;31601;48.042;12.240;2023-07-16T00:58:34;95911.28;;;24.16;55.59
12757;BME280;31601;48.042;12.240;2023-07-16T01:01:01;95916.38;;;24.17;55.89
12757;BME280;31601;48.042;12.240;2023-07-16T01:03:29;95918.63;;;24.00;56.53
12757;BME280;31601;48.042;12.240;2023-07-16T01:05:59;95931.56;;;23.77;56.79
12757;BME280;31601;48.042;12.240;2023-07-16T01:08:31;95936.22;;;24.16;56.04
12757;BME280;31601;48.042;12.240;2023-07-16T01:10:59;95941.50;;;23.76;57.11
12757;BME280;31601;48.042;12.240;2023-07-16T01:13:26;95951.56;;;24.00;56.85
12757;BME280;31601;48.042;12.240;2023-07-16T01:15:53;95959.59;;;24.05;56.73
12757;BME280;31601;48.042;12.240;2023-07-16T01:18:20;95977.72;;;24.24;56.40
12757;BME280;31601;48.042;12.240;2023-07-16T01:20:48;95984.44;;;24.21;56.42
12757;BME280;31601;48.042;12.240;2023-07-16T01:23:26;96003.31;;;23.95;57.47
12757;BME280;31601;48.042;12.240;2023-07-16T01:26:08;96020.28;;;23.65;58.19
12757;BME280;31601;48.042;12.240;2023-07-16T01:29:14;96043.53;;;23.80;58.03
12757;BME280;31601;48.042;12.240;2023-07-16T01:31:45;96068.97;;;23.98;57.84
12757;BME280;31601;48.042;12.240;2023-07-16T01:34:13;96079.19;;;23.86;58.02
12757;BME280;31601;48.042;12.240;2023-07-16T01:36:41;96097.97;;;23.34;59.94
12757;BME280;31601;48.042;12.240;2023-07-16T01:39:07;96094.22;;;23.40;60.08
12757;BME280;31601;48.042;12.240;2023-07-16T01:41:34;96113.75;;;23.41;60.17
12757;BME280;31601;48.042;12.240;2023-07-16T01:44:00;96102.25;;;23.20;61.06
12757;BME280;31601;48.042;12.240;2023-07-16T01:46:28;96111.63;;;23.28;61.11
12757;BME280;31601;48.042;12.240;2023-07-16T01:48:55;96118.06;;;23.32;60.83
12757;BME280;31601;48.042;12.240;2023-07-16T01:51:22;96120.44;;;23.23;61.34
12757;BME280;31601;48.042;12.240;2023-07-16T01:53:48;96127.69;;;23.28;61.40
12757;BME280;31601;48.042;12.240;2023-07-16T01:56:14;96127.94;;;23.26;61.34
12757;BME280;31601;48.042;12.240;2023-07-16T01:58:41;96128.47;;;23.38;60.70
12757;BME280;31601;48.042;12.240;2023-07-16T02:01:07;96144.56;;;23.44;60.76
12757;BME280;31601;48.042;12.240;2023-07-16T02:03:35;96129.28;;;23.54;60.64
12757;BME280;31601;48.042;12.240;2023-07-16T02:06:02;96137.84;;;23.46;61.15
12757;BME280;31601;48.042;12.240;2023-07-16T02:08:28;96143.06;;;22.64;63.93
12757;BME280;31601;48.042;12.240;2023-07-16T02:10:54;96146.09;;;22.88;63.35
12757;BME280;31601;48.042;12.240;2023-07-16T02:13:21;96144.84;;;23.42;61.85
12757;BME280;31601;48.042;12.240;2023-07-16T02:15:47;96155.81;;;23.40;61.70
12757;BME280;31601;48.042;12.240;2023-07-16T02:18:14;96164.34;;;23.12;62.29
12757;BME280;31601;48.042;12.240;2023-07-16T02:20:43;96170.50;;;23.28;62.03
12757;BME280;31601;48.042;12.240;2023-07-16T02:23:09;96169.72;;;23.27;62.20
12757;BME280;31601;48.042;12.240;2023-07-16T02:25:36;96170.16;;;22.98;63.44
12757;BME280;31601;48.042;12.240;2023-07-16T02:28:02;96173.47;;;23.31;62.37
12757;BME280;31601;48.042;12.240;2023-07-16T02:30:29;96176.38;;;23.19;62.49
12757;BME280;31601;48.042;12.240;2023-07-16T02:32:55;96188.16;;;23.18;62.81
12757;BME280;31601;48.042;12.240;2023-07-16T02:35:23;96195.91;;;23.20;63.05
12757;BME280;31601;48.042;12.240;2023-07-16T02:37:51;96205.72;;;22.94;63.96
12757;BME280;31601;48.042;12.240;2023-07-16T02:40:18;96205.81;;;23.19;63.42
12757;BME280;31601;48.042;12.240;2023-07-16T02:42:44;96207.44;;;23.31;62.92
12757;BME280;31601;48.042;12.240;2023-07-16T02:45:10;96218.69;;;23.38;62.73
12757;BME280;31601;48.042;12.240;2023-07-16T02:47:37;96222.72;;;23.40;62.85
12757;BME280;31601;48.042;12.240;2023-07-16T02:50:04;96229.41;;;23.38;62.93
12757;BME280;31601;48.042;12.240;2023-07-16T02:52:30;96235.06;;;23.52;62.40
12757;BME280;31601;48.042;12.240;2023-07-16T02:54:58;96234.78;;;23.48;62.72
12757;BME280;31601;48.042;12.240;2023-07-16T02:57:25;96237.47;;;23.64;62.13
12757;BME280;31601;48.042;12.240;2023-07-16T02:59:51;96235.88;;;23.73;61.87
12757;BME280;31601;48.042;12.240;2023-07-16T03:02:17;96229.44;;;23.58;62.51
12757;BME280;31601;48.042;12.240;2023-07-16T03:04:44;96235.06;;;23.62;62.14
12757;BME280;31601;48.042;12.240;2023-07-16T03:07:10;96235.34;;;23.66;62.37
12757;BME280;31601;48.042;12.240;2023-07-16T03:09:37;96230.50;;;23.57;62.28
12757;BME280;31601;48.042;12.240;2023-07-16T03:12:06;96236.66;;;23.78;62.05
12757;BME280;31601;48.042;12.240;2023-07-16T03:14:32;96239.38;;;23.89;61.46
12757;BME280;31601;48.042;12.240;2023-07-16T03:16:59;96235.59;;;24.00;61.06
12757;BME280;31601;48.042;12.240;2023-07-16T03:19:27;96231.59;;;24.03;60.92
12757;BME280;31601;48.042;12.240;2023-07-16T03:21:53;96232.41;;;23.98;60.91
12757;BME280;31601;48.042;12.240;2023-07-16T03:24:20;96235.88;;;23.99;60.57
12757;BME280;31601;48.042;12.240;2023-07-16T03:26:46;96235.59;;;24.00;60.93
12757;BME280;31601;48.042;12.240;2023-07-16T03:29:14;96241.78;;;24.06;60.99
12757;BME280;31601;48.042;12.240;2023-07-16T03:31:41;96241.75;;;24.11;61.06
12757;BME280;31601;48.042;12.240;2023-07-16T03:34:07;96244.75;;;23.99;61.05
12757;BME280;31601;48.042;12.240;2023-07-16T03:36:33;96252.22;;;24.12;60.47
12757;BME280;31601;48.042;12.240;2023-07-16T03:39:00;96255.44;;;24.20;60.77
12757;BME280;31601;48.042;12.240;2023-07-16T03:41:28;96250.34;;;24.18;60.58
12757;BME280;31601;48.042;12.240;2023-07-16T03:43:54;96249.53;;;24.12;60.79
12757;BME280;31601;48.042;12.240;2023-07-16T03:46:22;96247.94;;;24.17;60.68
12757;BME280;31601;48.042;12.240;2023-07-16T03:48:48;96250.06;;;24.20;60.74
12757;BME280;31601;48.042;12.240;2023-07-16T03:51:15;96235.34;;;24.12;61.12
12757;BME280;31601;48.042;12.240;2023-07-16T03:53:42;96243.66;;;24.21;61.07
12757;BME280;31601;48.042;12.240;2023-07-16T03:56:08;96254.88;;;24.23;60.92
12757;BME280;31601;48.042;12.240;2023-07-16T03:58:35;96255.44;;;24.20;61.05
12757;BME280;31601;48.042;12.240;2023-07-16T04:01:01;96259.72;;;24.26;60.87
12757;BME280;31601;48.042;12.240;2023-07-16T04:03:30;96264.53;;;24.29;60.82
12757;BME280;31601;48.042;12.240;2023-07-16T04:06:01;96266.66;;;24.32;61.04
12757;BME280;31601;48.042;12.240;2023-07-16T04:08:28;96276.59;;;24.37;60.68
12757;BME280;31601;48.042;12.240;2023-07-16T04:10:54;96274.47;;;24.28;60.84
12757;BME280;31601;48.042;12.240;2023-07-16T04:13:20;96278.47;;;24.31;60.96
12757;BME280;31601;48.042;12.240;2023-07-16T04:15:47;96276.34;;;24.33;61.06
12757;BME280;31601;48.042;12.240;2023-07-16T04:18:13;96271.50;;;24.30;61.60
12757;BME280;31601;48.042;12.240;2023-07-16T04:20:41;96279.00;;;24.33;61.01
12757;BME280;31601;48.042;12.240;2023-07-16T04:23:08;96281.97;;;23.95;62.98
12757;BME280;31601;48.042;12.240;2023-07-16T04:25:34;96284.41;;;24.18;61.86
12757;BME280;31601;48.042;12.240;2023-07-16T04:28:00;96288.13;;;24.27;62.38
12757;BME280;31601;48.042;12.240;2023-07-16T04:30:29;96298.31;;;24.09;63.65
12757;BME280;31601;48.042;12.240;2023-07-16T04:32:55;96318.34;;;23.66;66.71
12757;BME280;31601;48.042;12.240;2023-07-16T04:35:21;96315.91;;;23.44;66.31
12757;BME280;31601;48.042;12.240;2023-07-16T04:37:49;96319.41;;;23.59;66.87
12757;BME280;31601;48.042;12.240;2023-07-16T04:40:16;96319.13;;;23.40;68.62
12757;BME280;31601;48.042;12.240;2023-07-16T04:42:42;96327.63;;;23.32;69.32
12757;BME280;31601;48.042;12.240;2023-07-16T04:45:09;96333.50;;;23.19;69.19
12757;BME280;31601;48.042;12.240;2023-07-16T04:47:35;96330.81;;;23.19;69.26
12757;BME280;31601;48.042;12.240;2023-07-16T04:50:02;96334.81;;;23.11;69.84
12757;BME280;31601;48.042;12.240;2023-07-16T04:52:28;96335.84;;;23.10;70.09
12757;BME280;31601;48.042;12.240;2023-07-16T04:54:56;96331.00;;;23.02;70.88
12757;BME280;31601;48.042;12.240;2023-07-16T04:57:23;96336.44;;;23.17;70.61
12757;BME280;31601;48.042;12.240;2023-07-16T04:59:49;96331.09;;;23.28;70.26
12757;BME280;31601;48.042;12.240;2023-07-16T05:02:16;96334.81;;;23.16;69.85
12757;BME280;31601;48.042;12.240;2023-07-16T05:04:42;96343.16;;;23.30;69.33
12757;BME280;31601;48.042;12.240;2023-07-16T05:07:12;96345.25;;;23.23;69.96
12757;BME280;31601;48.042;12.240;2023-07-16T05:09:39;96340.69;;;23.13;69.39
12757;BME280;31601;48.042;12.240;2023-07-16T05:12:07;96343.16;;;23.35;68.72
12757;BME280;31601;48.042;12.240;2023-07-16T05:14:43;96352.31;;;23.45;68.08
12757;BME280;31601;48.042;12.240;2023-07-16T05:17:09;96347.28;;;23.64;67.54
12757;BME280;31601;48.042;12.240;2023-07-16T05:19:36;96348.63;;;23.76;67.70
12757;BME280;31601;48.042;12.240;2023-07-16T05:22:02;96349.50;;;23.87;68.01
12757;BME280;31601;48.042;12.240;2023-07-16T05:24:28;96355.91;;;23.86;67.72
12757;BME280;31601;48.042;12.240;2023-07-16T05:26:55;96356.69;;;23.71;68.22
12757;BME280;31601;48.042;12.240;2023-07-16T05:29:23;96364.03;;;23.28;69.52
12757;BME280;31601;48.042;12.240;2023-07-16T05:31:49;96380.97;;;22.91;71.54
12757;BME280;31601;48.042;12.240;2023-07-16T05:34:15;96393.56;;;22.58;73.35
12757;BME280;31601;48.042;12.240;2023-07-16T05:36:42;96402.19;;;22.06;75.52
12757;BME280;31601;48.042;12.240;2023-07-16T05:39:09;96397.47;;;22.13;75.72
12757;BME280;31601;48.042;12.240;2023-07-16T05:41:38;96407.97;;;21.92;75.53
12757;BME280;31601;48.042;12.240;2023-07-16T05:44:05;96411.44;;;22.20;74.37
12757;BME280;31601;48.042;12.240;2023-07-16T05:46:33;96414.38;;;21.96;74.77
12757;BME280;31601;48.042;12.240;2023-07-16T05:48:59;96401.69;;;22.09;75.25
12757;BME280;31601;48.042;12.240;2023-07-16T05:51:26;96412.06;;;22.05;74.75
12757;BME280;31601;48.042;12.240;2023-07-16T05:53:52;96411.72;;;22.24;74.40
12757;BME280;31601;48.042;12.240;2023-07-16T05:56:19;96405.28;;;22.52;73.64
12757;BME280;31601;48.042;12.240;2023-07-16T05:58:45;96399.38;;;22.45;73.20
12757;BME280;31601;48.042;12.240;2023-07-16T06:01:11;96397.31;;;22.57;72.59
12757;BME280;31601;48.042;12.240;2023-07-16T06:03:39;96406.03;;;22.42;72.81
12757;BME280;31601;48.042;12.240;2023-07-16T06:06:08;96412.72;;;22.77;72.49
12757;BME280;31601;48.042;12.240;2023-07-16T06:08:35;96408.63;;;22.69;72.55
12757;BME280;31601;48.042;12.240;2023-07-16T06:11:01;96391.06;;;22.79;71.71
12757;BME280;31601;48.042;12.240;2023-07-16T06:13:29;96393.41;;;22.75;71.41
12757;BME280;31601;48.042;12.240;2023-07-16T06:15:55;96383.63;;;22.91;71.38
12757;BME280;31601;48.042;12.240;2023-07-16T06:18:22;96391.28;;;23.15;71.77
12757;BME280;31601;48.042;12.240;2023-07-16T06:20:50;96395.38;;;23.33;71.92
12757;BME280;31601;48.042;12.240;2023-07-16T06:23:17;96397.72;;;23.19;71.33
12757;BME280;31601;48.042;12.240;2023-07-16T06:25:43;96386.56;;;23.42;71.42
12757;BME280;31601;48.042;12.240;2023-07-16T06:28:12;96386.38;;;23.59;70.83
12757;BME280;31601;48.042;12.240;2023-07-16T06:30:38;96384.00;;;23.78;70.92
12757;BME280;31601;48.042;12.240;2023-07-16T06:33:04;96376.22;;;23.67;70.20
12757;BME280;31601;48.042;12.240;2023-07-16T06:35:31;96383.53;;;23.92;70.39
12757;BME280;31601;48.042;12.240;2023-07-16T06:37:59;96380.06;;;24.07;70.02
12757;BME280;31601;48.042;12.240;2023-07-16T06:40:25;96382.16;;;23.89;69.24
12757;BME280;31601;48.042;12.240;2023-07-16T06:42:52;96397.78;;;24.13;68.59
12757;BME280;31601;48.042;12.240;2023-07-16T06:45:18;96387.31;;;24.22;69.15
12757;BME280;31601;48.042;12.240;2023-07-16T06:47:44;96385.69;;;24.31;68.99
12757;BME280;31601;48.042;12.240;2023-07-16T06:50:11;96391.06;;;24.41;68.13
12757;BME280;31601;48.042;12.240;2023-07-16T06:52:37;96405.28;;;24.37;67.53
12757;BME280;31601;48.042;12.240;2023-07-16T06:55:06;96411.44;;;24.37;67.04
12757;BME280;31601;48.042;12.240;2023-07-16T06:57:32;96409.03;;;24.30;67.66
12757;BME280;31601;48.042;12.240;2023-07-16T06:59:59;96413.59;;;24.45;66.85
12757;BME280;31601;48.042;12.240;2023-07-16T07:02:25;96421.91;;;24.44;66.45
12757;BME280;31601;48.042;12.240;2023-07-16T07:04:52;96425.41;;;24.44;67.24
12757;BME280;31601;48.042;12.240;2023-07-16T07:07:18;96417.38;;;24.75;67.00
12757;BME280;31601;48.042;12.240;2023-07-16T07:09:47;96417.84;;;25.13;65.94
12757;BME280;31601;48.042;12.240;2023-07-16T07:12:14;96416.75;;;25.19;65.50
12757;BME280;31601;48.042;12.240;2023-07-16T07:14:41;96418.88;;;25.33;64.74
12757;BME280;31601;48.042;12.240;2023-07-16T07:17:07;96414.06;;;25.19;63.88
12757;BME280;31601;48.042;12.240;2023-07-16T07:19:34;96419.38;;;25.50;63.36
12757;BME280;31601;48.042;12.240;2023-07-16T07:22:00;96407.97;;;25.74;61.97
12757;BME280;31601;48.042;12.240;2023-07-16T07:24:26;96406.19;;;26.04;62.19
12757;BME280;31601;48.042;12.240;2023-07-16T07:26:53;96403.69;;;26.23;62.10
12757;BME280;31601;48.042;12.240;2023-07-16T07:29:21;96404.97;;;26.25;60.30
12757;BME280;31601;48.042;12.240;2023-07-16T07:31:47;96412.13;;;26.06;60.16
12757;BME280;31601;48.042;12.240;2023-07-16T07:34:14;96406.09;;;26.19;59.45
12757;BME280;31601;48.042;12.240;2023-07-16T07:36:40;96417.09;;;25.73;61.98
12757;BME280;31601;48.042;12.240;2023-07-16T07:39:07;96407.38;;;26.27;61.74
12757;BME280;31601;48.042;12.240;2023-07-16T07:41:33;96421.44;;;26.53;61.04
12757;BME280;31601;48.042;12.240;2023-07-16T07:44:00;96420.31;;;26.25;60.44
12757;BME280;31601;48.042;12.240;2023-07-16T07:46:28;96422.63;;;26.37;59.38
12757;BME280;31601;48.042;12.240;2023-07-16T07:48:54;96418.13;;;26.61;59.87
12757;BME280;31601;48.042;12.240;2023-07-16T07:51:21;96420.50;;;26.39;60.13
12757;BME280;31601;48.042;12.240;2023-07-16T07:53:48;96411.88;;;26.37;60.90
12757;BME280;31601;48.042;12.240;2023-07-16T07:56:14;96417.41;;;26.21;61.50
12757;BME280;31601;48.042;12.240;2023-07-16T07:58:41;96421.38;;;26.58;60.14
12757;BME280;31601;48.042;12.240;2023-07-16T08:01:08;96420.38;;;26.49;60.35
12757;BME280;31601;48.042;12.240;2023-07-16T08:03:36;96419.38;;;26.40;59.04
12757;BME280;31601;48.042;12.240;2023-07-16T08:06:02;96409.50;;;26.70;58.84
12757;BME280;31601;48.042;12.240;2023-07-16T08:08:28;96410.59;;;26.69;59.03
12757;BME280;31601;48.042;12.240;2023-07-16T08:10:55;96403.94;;;26.56;57.34
12757;BME280;31601;48.042;12.240;2023-07-16T08:13:22;96410.97;;;25.67;58.79
12757;BME280;31601;48.042;12.240;2023-07-16T08:15:48;96404.41;;;26.29;57.99
12757;BME280;31601;48.042;12.240;2023-07-16T08:18:15;96391.25;;;26.27;58.07
12757;BME280;31601;48.042;12.240;2023-07-16T08:20:42;96398.34;;;27.35;57.40
12757;BME280;31601;48.042;12.240;2023-07-16T08:23:09;96395.06;;;27.81;54.65
12757;BME280;31601;48.042;12.240;2023-07-16T08:25:35;96404.06;;;27.28;55.06
12757;BME280;31601;48.042;12.240;2023-07-16T08:28:02;96392.34;;;27.14;55.16
12757;BME280;31601;48.042;12.240;2023-07-16T08:30:29;96398.41;;;26.76;55.15
12757;BME280;31601;48.042;12.240;2023-07-16T08:32:55;96393.34;;;26.70;55.33
12757;BME280;31601;48.042;12.240;2023-07-16T08:35:21;96393.78;;;26.48;56.25
12757;BME280;31601;48.042;12.240;2023-07-16T08:37:49;96388.72;;;27.53;53.45
12757;BME280;31601;48.042;12.240;2023-07-16T08:40:16;96388.47;;;27.01;53.95
12757;BME280;31601;48.042;12.240;2023-07-16T08:42:44;96379.38;;;27.64;55.37
12757;BME280;31601;48.042;12.240;2023-07-16T08:45:11;96385.19;;;28.15;52.11
12757;BME280;31601;48.042;12.240;2023-07-16T08:47:39;96379.69;;;27.82;51.79
12757;BME280;31601;48.042;12.240;2023-07-16T08:50:06;96387.16;;;28.42;51.48
12757;BME280;31601;48.042;12.240;2023-07-16T08:52:33;96384.66;;;28.13;51.77
12757;BME280;31601;48.042;12.240;2023-07-16T08:55:00;96378.72;;;28.30;50.10
12757;BME280;31601;48.042;12.240;2023-07-16T08:57:28;96372.72;;;28.85;49.38
12757;BME280;31601;48.042;12.240;2023-07-16T08:59:55;96374.34;;;29.00;49.34
12757;BME280;31601;48.042;12.240;2023-07-16T09:02:22;96367.53;;;29.30;49.69
12757;BME280;31601;48.042;12.240;2023-07-16T09:04:49;96367.97;;;28.11;49.37
12757;BME280;31601;48.042;12.240;2023-07-16T09:07:17;96380.63;;;27.72;49.78
12757;BME280;31601;48.042;12.240;2023-07-16T09:09:43;96367.09;;;28.15;50.42
12757;BME280;31601;48.042;12.240;2023-07-16T09:12:12;96360.31;;;28.51;50.00
12757;BME280;31601;48.042;12.240;2023-07-16T09:14:40;96363.88;;;28.65;49.78
12757;BME280;31601;48.042;12.240;2023-07-16T09:17:07;96363.72;;;29.03;48.81
12757;BME280;31601;48.042;12.240;2023-07-16T09:19:33;96361.81;;;28.90;49.23
12757;BME280;31601;48.042;12.240;2023-07-16T09:22:00;96358.91;;;29.14;49.34
12757;BME280;31601;48.042;12.240;2023-07-16T09:24:26;96360.94;;;29.36;48.95
12757;BME280;31601;48.042;12.240;2023-07-16T09:26:54;96360.31;;;29.53;48.44
12757;BME280;31601;48.042;12.240;2023-07-16T09:29:24;96365.84;;;29.34;47.04
12757;BME280;31601;48.042;12.240;2023-07-16T09:31:53;96358.22;;;28.48;47.07
12757;BME280;31601;48.042;12.240;2023-07-16T09:34:20;96351.50;;;28.64;46.92
12757;BME280;31601;48.042;12.240;2023-07-16T09:36:47;96352.94;;;29.31;48.29
12757;BME280;31601;48.042;12.240;2023-07-16T09:39:15;96352.56;;;28.30;48.49
12757;BME280;31601;48.042;12.240;2023-07-16T09:41:43;96335.13;;;28.09;50.36
12757;BME280;31601;48.042;12.240;2023-07-16T09:44:10;96333.69;;;28.77;50.13
12757;BME280;31601;48.042;12.240;2023-07-16T09:46:39;96340.13;;;28.15;49.85
12757;BME280;31601;48.042;12.240;2023-07-16T09:49:06;96335.06;;;28.61;49.75
12757;BME280;31601;48.042;12.240;2023-07-16T09:51:35;96333.81;;;28.72;49.97
12757;BME280;31601;48.042;12.240;2023-07-16T09:54:03;96334.50;;;29.05;49.03
12757;BME280;31601;48.042;12.240;2023-07-16T09:56:34;96332.69;;;28.73;49.51
12757;BME280;31601;48.042;12.240;2023-07-16T09:59:02;96331.69;;;29.52;49.21
12757;BME280;31601;48.042;12.240;2023-07-16T10:01:32;96325.94;;;29.81;48.11
12757;BME280;31601;48.042;12.240;2023-07-16T10:04:11;96326.00;;;28.70;49.19
12757;BME280;31601;48.042;12.240;2023-07-16T10:06:48;96328.81;;;29.21;48.56
12757;BME280;31601;48.042;12.240;2023-07-16T10:09:31;96312.28;;;28.94;48.02
12757;BME280;31601;48.042;12.240;2023-07-16T10:12:07;96322.72;;;28.40;49.10
12757;BME280;31601;48.042;12.240;2023-07-16T10:14:39;96329.56;;;27.43;50.51
12757;BME280;31601;48.042;12.240;2023-07-16T10:17:05;96318.09;;;28.27;50.80
12757;BME280;31601;48.042;12.240;2023-07-16T10:19:46;96311.31;;;28.77;49.84
12757;BME280;31601;48.042;12.240;2023-07-16T10:22:12;96313.13;;;28.95;48.21
12757;BME280;31601;48.042;12.240;2023-07-16T10:24:39;96309.22;;;28.73;47.55
12757;BME280;31601;48.042;12.240;2023-07-16T10:27:05;96306.81;;;29.64;46.56
12757;BME280;31601;48.042;12.240;2023-07-16T10:29:32;96309.03;;;30.21;46.50
12757;BME280;31601;48.042;12.240;2023-07-16T10:32:02;96302.50;;;30.22;44.94
12757;BME280;31601;48.042;12.240;2023-07-16T10:34:28;96300.22;;;29.56;45.95
12757;BME280;31601;48.042;12.240;2023-07-16T10:36:56;96295.97;;;27.92;50.10
12757;BME280;31601;48.042;12.240;2023-07-16T10:39:23;96284.38;;;27.92;49.67
12757;BME280;31601;48.042;12.240;2023-07-16T10:41:49;96285.88;;;28.17;50.26
12757;BME280;31601;48.042;12.240;2023-07-16T10:44:15;96296.13;;;27.01;51.41
12757;BME280;31601;48.042;12.240;2023-07-16T10:46:42;96292.69;;;27.57;50.56
12757;BME280;31601;48.042;12.240;2023-07-16T10:49:09;96292.34;;;27.64;52.36
12757;BME280;31601;48.042;12.240;2023-07-16T10:51:35;96290.22;;;26.98;52.77
12757;BME280;31601;48.042;12.240;2023-07-16T10:54:03;96284.50;;;27.24;52.61
12757;BME280;31601;48.042;12.240;2023-07-16T10:56:34;96278.28;;;27.86;51.29
12757;BME280;31601;48.042;12.240;2023-07-16T10:59:01;96275.25;;;27.55;51.41
12757;BME280;31601;48.042;12.240;2023-07-16T11:01:28;96281.38;;;28.12;50.94
12757;BME280;31601;48.042;12.240;2023-07-16T11:04:00;96281.34;;;27.98;50.49
12757;BME280;31601;48.042;12.240;2023-07-16T11:06:26;96270.44;;;28.36;48.56
12757;BME280;31601;48.042;12.240;2023-07-16T11:08:53;96268.59;;;29.06;48.42
12757;BME280;31601;48.042;12.240;2023-07-16T11:11:28;96261.81;;;28.95;46.56
12757;BME280;31601;48.042;12.240;2023-07-16T11:13:55;96262.78;;;28.85;47.45
12757;BME280;31601;48.042;12.240;2023-07-16T11:16:22;96260.97;;;28.53;48.78
12757;BME280;31601;48.042;12.240;2023-07-16T11:18:48;96268.66;;;28.46;50.06
12757;BME280;31601;48.042;12.240;2023-07-16T11:21:18;96264.72;;;28.85;48.41
12757;BME280;31601;48.042;12.240;2023-07-16T11:23:44;96268.03;;;29.46;48.09
12757;BME280;31601;48.042;12.240;2023-07-16T11:26:11;96258.47;;;29.12;46.35
12757;BME280;31601;48.042;12.240;2023-07-16T11:28:40;96264.97;;;29.39;47.35
12757;BME280;31601;48.042;12.240;2023-07-16T11:31:10;96262.91;;;28.94;46.56
12757;BME280;31601;48.042;12.240;2023-07-16T11:33:37;96254.94;;;28.42;47.66
12757;BME280;31601;48.042;12.240;2023-07-16T11:36:04;96244.69;;;28.58;46.30
12757;BME280;31601;48.042;12.240;2023-07-16T11:38:36;96237.88;;;28.47;47.10
12757;BME280;31601;48.042;12.240;2023-07-16T11:41:02;96245.88;;;28.38;47.66
12757;BME280;31601;48.042;12.240;2023-07-16T11:43:29;96244.31;;;28.65;46.92
12757;BME280;31601;48.042;12.240;2023-07-16T11:46:01;96244.50;;;27.75;48.11
12757;BME280;31601;48.042;12.240;2023-07-16T11:48:27;96244.16;;;28.56;47.16
12757;BME280;31601;48.042;12.240;2023-07-16T11:50:53;96241.06;;;29.18;45.99
12757;BME280;31601;48.042;12.240;2023-07-16T11:53:20;96249.00;;;28.59;47.75
12757;BME280;31601;48.042;12.240;2023-07-16T11:55:46;96246.25;;;28.31;47.22
12757;BME280;31601;48.042;12.240;2023-07-16T11:58:13;96233.66;;;28.40;47.36
12757;BME280;31601;48.042;12.240;2023-07-16T12:00:39;96230.31;;;28.02;46.83
12757;BME280;31601;48.042;12.240;2023-07-16T12:03:07;96222.69;;;28.37;46.41
12757;BME280;31601;48.042;12.240;2023-07-16T12:05:33;96214.56;;;29.06;45.28
12757;BME280;31601;48.042;12.240;2023-07-16T12:08:00;96210.47;;;29.23;44.75
12757;BME280;31601;48.042;12.240;2023-07-16T12:10:26;96207.69;;;29.00;45.70
12757;BME280;31601;48.042;12.240;2023-07-16T12:12:53;96204.25;;;29.22;44.68
12757;BME280;31601;48.042;12.240;2023-07-16T12:15:19;96197.63;;;29.88;45.25
12757;BME280;31601;48.042;12.240;2023-07-16T12:17:45;96198.06;;;30.12;42.62
12757;BME280;31601;48.042;12.240;2023-07-16T12:20:13;96199.78;;;30.40;41.33
12757;BME280;31601;48.042;12.240;2023-07-16T12:22:40;96205.50;;;30.07;42.42
12757;BME280;31601;48.042;12.240;2023-07-16T12:25:07;96206.69;;;30.55;42.04
12757;BME280;31601;48.042;12.240;2023-07-16T12:27:33;96198.69;;;30.89;42.39
12757;BME280;31601;48.042;12.240;2023-07-16T12:30:00;96200.44;;;29.82;41.20
12757;BME280;31601;48.042;12.240;2023-07-16T12:32:26;96196.19;;;30.22;42.01
12757;BME280;31601;48.042;12.240;2023-07-16T12:34:53;96197.28;;;30.52;41.80
12757;BME280;31601;48.042;12.240;2023-07-16T12:37:21;96190.25;;;30.42;41.32
12757;BME280;31601;48.042;12.240;2023-07-16T12:39:48;96193.53;;;29.99;41.83
12757;BME280;31601;48.042;12.240;2023-07-16T12:42:14;96189.97;;;29.90;40.59
12757;BME280;31601;48.042;12.240;2023-07-16T12:44:40;96194.13;;;30.27;41.55
12757;BME280;31601;48.042;12.240;2023-07-16T12:47:10;96189.78;;;30.40;42.03
12757;BME280;31601;48.042;12.240;2023-07-16T12:49:37;96189.88;;;30.66;41.58
12757;BME280;31601;48.042;12.240;2023-07-16T12:52:04;96186.78;;;30.50;40.04